Potrero, California
Current Conditions -  °F | °C
As of 2:46 PM on Tuesday 21 Oct 2014 (Local Time) from MMTJ Reporting Station
Clear Clear  
Wind Chill: 73°   Ceiling: Unl
Heat Index: 73°   Visibility: 7mi
Dew Point: 59°   Wind: 14mph
Humidity: 61%   Direction: 300°WNW
Pressure: 29.88"   Gusts: NA
Location:  32.6°N, 116.61°W
Report Text: MMTJ 212146Z 30012KT 7SM SKC 23/15 A2988 RMK HZY
Loading
Personal Weather Stations






























Interactive Weather Map
Tropical Storm Tracking
New forecast layout! Learn more

10-Day Weather Forecast

Advertisements
Track Severe Weather on mobile